createdAt,value
2018-06-15T00:00:41.020Z,24.28
2018-06-15T00:03:07.705Z,24.23
2018-06-15T00:05:34.357Z,24.22
2018-06-15T00:08:00.995Z,24.19
2018-06-15T00:10:27.669Z,24.21
2018-06-15T00:12:54.375Z,24.19
2018-06-15T00:15:21.031Z,24.20
2018-06-15T00:17:47.684Z,24.19
2018-06-15T00:20:14.366Z,24.18
2018-06-15T00:22:41.017Z,24.18
2018-06-15T00:25:07.738Z,24.10
2018-06-15T00:27:34.387Z,24.15
2018-06-15T00:30:01.092Z,24.12
2018-06-15T00:32:27.746Z,24.12
2018-06-15T00:34:54.445Z,24.11
2018-06-15T00:37:21.122Z,24.12
2018-06-15T00:39:47.747Z,24.09
2018-06-15T00:42:14.401Z,24.08
2018-06-15T00:44:41.060Z,24.16
2018-06-15T00:47:07.761Z,24.09
2018-06-15T00:49:34.416Z,24.09
2018-06-15T00:52:01.050Z,24.07
2018-06-15T00:54:27.761Z,24.06
2018-06-15T00:56:54.415Z,24.04
2018-06-15T00:59:21.119Z,24.03
2018-06-15T01:01:47.802Z,24.03
2018-06-15T01:04:14.420Z,24.02
2018-06-15T01:06:41.146Z,23.98
2018-06-15T01:09:07.906Z,24.00
2018-06-15T01:11:34.608Z,23.99
2018-06-15T01:14:01.311Z,23.97
2018-06-15T01:16:28.114Z,23.96
2018-06-15T01:18:54.781Z,23.97
2018-06-15T01:21:21.475Z,23.97
2018-06-15T01:23:48.327Z,24.00
2018-06-15T01:26:14.983Z,23.96
2018-06-15T01:28:41.614Z,23.95
2018-06-15T01:31:08.280Z,23.95
2018-06-15T01:33:34.993Z,23.94
2018-06-15T01:36:01.716Z,23.95
2018-06-15T01:38:29.644Z,23.94
2018-06-15T01:40:55.030Z,23.92
2018-06-15T01:43:21.652Z,23.93
2018-06-15T01:45:48.448Z,23.95
2018-06-15T01:48:15.099Z,23.92
2018-06-15T01:50:41.793Z,23.91
2018-06-15T01:53:08.427Z,23.85
2018-06-15T01:55:35.136Z,23.87
2018-06-15T01:58:01.836Z,23.86
2018-06-15T02:00:28.447Z,23.86
2018-06-15T02:02:55.112Z,23.85
2018-06-15T02:05:21.811Z,23.85
2018-06-15T02:07:48.516Z,23.84
2018-06-15T02:10:15.192Z,23.84
2018-06-15T02:12:41.859Z,23.84
2018-06-15T02:15:08.556Z,23.84
2018-06-15T02:17:35.221Z,23.82
2018-06-15T02:20:01.896Z,23.84
2018-06-15T02:22:28.548Z,23.81
2018-06-15T02:24:55.214Z,23.82
2018-06-15T02:27:21.900Z,23.79
2018-06-15T02:29:48.547Z,23.77
2018-06-15T02:32:15.239Z,23.79
2018-06-15T02:34:41.905Z,23.77
2018-06-15T02:37:08.648Z,23.79
2018-06-15T02:39:35.353Z,23.77
2018-06-15T02:42:02.061Z,23.79
2018-06-15T02:44:28.760Z,23.79
2018-06-15T02:46:55.446Z,23.75
2018-06-15T02:49:22.070Z,23.75
2018-06-15T02:51:48.734Z,23.74
2018-06-15T02:54:15.448Z,23.76
2018-06-15T02:56:42.173Z,23.76
2018-06-15T02:59:08.827Z,23.73
2018-06-15T03:01:35.598Z,23.75
2018-06-15T03:04:02.237Z,23.76
2018-06-15T03:06:28.912Z,23.74
2018-06-15T03:08:55.586Z,23.69
2018-06-15T03:11:22.289Z,23.72
2018-06-15T03:13:48.945Z,23.81
2018-06-15T03:16:15.631Z,23.78
2018-06-15T03:18:42.273Z,23.59
2018-06-15T03:21:08.924Z,23.49
2018-06-15T03:23:35.583Z,23.54
2018-06-15T03:26:02.270Z,23.51
2018-06-15T03:28:28.982Z,23.53
2018-06-15T03:30:55.630Z,23.51
2018-06-15T03:33:22.273Z,23.46
2018-06-15T03:35:48.908Z,23.52
2018-06-15T03:38:15.643Z,23.58
2018-06-15T03:40:42.321Z,23.64
2018-06-15T03:43:08.976Z,23.66
2018-06-15T03:45:35.686Z,23.69
2018-06-15T03:48:02.356Z,23.70
2018-06-15T03:50:29.007Z,23.69
2018-06-15T03:52:55.701Z,23.73
2018-06-15T03:55:22.365Z,23.66
2018-06-15T03:57:49.117Z,23.82
2018-06-15T04:00:15.797Z,23.89
2018-06-15T04:02:42.455Z,23.90
2018-06-15T04:05:09.171Z,23.95
2018-06-15T04:07:36.012Z,24.12
2018-06-15T04:10:02.648Z,24.13
2018-06-15T04:12:29.300Z,24.32
2018-06-15T04:14:55.986Z,24.36
2018-06-15T04:17:22.662Z,24.26
2018-06-15T04:19:49.353Z,24.26
2018-06-15T04:22:15.995Z,24.15
2018-06-15T04:24:42.710Z,24.23
2018-06-15T04:27:09.420Z,24.34
2018-06-15T04:29:36.082Z,24.24
2018-06-15T04:32:02.732Z,24.41
2018-06-15T04:34:29.406Z,24.46
2018-06-15T04:36:56.099Z,24.37
2018-06-15T04:39:22.791Z,24.37
2018-06-15T04:41:49.441Z,24.41
2018-06-15T04:44:16.165Z,24.47
2018-06-15T04:46:42.782Z,24.52
2018-06-15T04:49:09.440Z,24.62
2018-06-15T04:51:36.138Z,24.69
2018-06-15T04:54:02.875Z,24.67
2018-06-15T04:56:29.489Z,24.74
2018-06-15T04:58:56.190Z,24.85
2018-06-15T05:01:22.850Z,24.94
2018-06-15T05:03:49.634Z,25.00
2018-06-15T05:06:16.288Z,25.01
2018-06-15T05:08:42.943Z,25.09
2018-06-15T05:11:09.608Z,25.21
2018-06-15T05:13:36.307Z,25.21
2018-06-15T05:16:03.014Z,25.25
2018-06-15T05:18:29.750Z,25.32
2018-06-15T05:20:56.373Z,25.40
2018-06-15T05:23:23.120Z,25.44
2018-06-15T05:25:49.782Z,25.48
2018-06-15T05:28:16.418Z,25.40
2018-06-15T05:30:44.968Z,25.23
2018-06-15T05:33:11.705Z,25.29
2018-06-15T05:35:38.388Z,25.26
2018-06-15T05:38:05.082Z,25.21
2018-06-15T05:40:31.731Z,25.21
2018-06-15T05:42:58.352Z,25.23
2018-06-15T05:45:25.071Z,25.19
2018-06-15T05:47:51.762Z,25.22
2018-06-15T05:50:18.437Z,25.16
2018-06-15T05:52:45.168Z,25.00
2018-06-15T05:55:11.791Z,25.02
2018-06-15T05:57:38.451Z,25.05
2018-06-15T06:00:05.119Z,25.09
2018-06-15T06:02:31.830Z,25.16
2018-06-15T06:04:58.489Z,25.29
2018-06-15T06:07:25.251Z,25.32
2018-06-15T06:09:51.900Z,25.34
2018-06-15T06:12:18.516Z,25.39
2018-06-15T06:14:45.211Z,25.43
2018-06-15T06:17:11.869Z,25.52
2018-06-15T06:19:38.596Z,25.61
2018-06-15T06:22:05.261Z,25.60
2018-06-15T06:24:34.263Z,25.69
2018-06-15T06:27:01.014Z,25.83
2018-06-15T06:29:27.632Z,25.74
2018-06-15T06:31:54.329Z,25.76
2018-06-15T06:34:21.021Z,25.68
2018-06-15T06:36:47.682Z,25.65
2018-06-15T06:39:14.346Z,25.51
2018-06-15T06:41:41.026Z,25.58
2018-06-15T06:44:08.079Z,25.46
2018-06-15T06:46:34.777Z,25.56
2018-06-15T06:49:01.494Z,25.50
2018-06-15T06:51:28.191Z,25.61
2018-06-15T06:53:54.899Z,25.77
2018-06-15T06:56:21.552Z,25.64
2018-06-15T06:58:48.257Z,25.57
2018-06-15T07:01:15.889Z,25.43
2018-06-15T07:03:42.736Z,25.50
2018-06-15T07:06:10.824Z,25.51
2018-06-15T07:08:36.142Z,25.54
2018-06-15T07:11:02.849Z,25.42
2018-06-15T07:13:29.577Z,25.43
2018-06-15T07:15:56.347Z,25.46
2018-06-15T07:18:22.969Z,25.59
2018-06-15T07:20:49.737Z,25.48
2018-06-15T07:23:16.386Z,25.55
2018-06-15T07:25:43.165Z,25.55
2018-06-15T07:28:09.876Z,25.61
2018-06-15T07:30:36.560Z,25.66
2018-06-15T07:33:03.283Z,25.69
2018-06-15T07:35:29.982Z,25.69
2018-06-15T07:37:56.855Z,25.77
2018-06-15T07:40:23.602Z,25.91
2018-06-15T07:42:50.308Z,25.91
2018-06-15T07:45:16.994Z,25.98
2018-06-15T07:47:43.634Z,25.95
2018-06-15T07:50:10.334Z,25.93
2018-06-15T07:52:37.054Z,26.05
2018-06-15T07:55:04.196Z,26.07
2018-06-15T07:57:30.952Z,26.10
2018-06-15T07:59:57.697Z,26.20
2018-06-15T08:02:24.397Z,26.16
2018-06-15T08:04:51.096Z,26.10
2018-06-15T08:07:17.774Z,26.07
2018-06-15T08:09:44.469Z,26.26
2018-06-15T08:12:11.150Z,26.21
2018-06-15T08:14:37.822Z,26.11
2018-06-15T08:17:04.557Z,26.19
2018-06-15T08:19:31.249Z,26.29
2018-06-15T08:21:57.972Z,26.33
2018-06-15T08:24:24.624Z,26.30
2018-06-15T08:26:51.342Z,26.39
2018-06-15T08:29:17.987Z,26.40
2018-06-15T08:31:44.906Z,26.42
2018-06-15T08:34:11.616Z,26.34
2018-06-15T08:36:38.244Z,26.25
2018-06-15T08:39:11.954Z,26.31
2018-06-15T08:41:38.660Z,26.32
2018-06-15T08:44:05.310Z,26.22
2018-06-15T08:46:31.957Z,26.29
2018-06-15T08:48:58.662Z,26.23
2018-06-15T08:51:25.452Z,26.25
2018-06-15T08:53:53.185Z,26.28
2018-06-15T08:56:19.873Z,26.21
2018-06-15T08:58:46.482Z,26.09
2018-06-15T09:01:13.226Z,26.19
2018-06-15T09:03:39.988Z,25.99
2018-06-15T09:06:06.647Z,25.95
2018-06-15T09:08:33.273Z,26.08
2018-06-15T09:10:59.954Z,25.97
2018-06-15T09:13:26.674Z,25.75
2018-06-15T09:15:53.318Z,26.02
2018-06-15T09:18:19.953Z,26.02
2018-06-15T09:20:46.627Z,25.86
2018-06-15T09:23:13.275Z,25.91
2018-06-15T09:25:39.967Z,25.63
2018-06-15T09:28:06.707Z,25.75
2018-06-15T09:30:33.421Z,25.68
2018-06-15T09:33:00.063Z,25.47
2018-06-15T09:35:27.947Z,25.64
2018-06-15T09:37:53.393Z,25.79
2018-06-15T09:40:20.039Z,25.69
2018-06-15T09:42:46.723Z,25.75
2018-06-15T09:45:13.412Z,25.79
2018-06-15T09:47:40.162Z,25.64
2018-06-15T09:50:06.796Z,25.70
2018-06-15T09:52:33.628Z,25.46
2018-06-15T09:55:00.347Z,25.70
2018-06-15T09:57:26.952Z,25.73
2018-06-15T09:59:53.628Z,25.44
2018-06-15T10:02:20.266Z,25.69
2018-06-15T10:04:47.022Z,25.73
2018-06-15T10:07:13.761Z,25.60
2018-06-15T10:09:40.470Z,25.81
2018-06-15T10:12:07.108Z,25.77
2018-06-15T10:14:33.855Z,25.93
2018-06-15T10:17:00.548Z,25.85
2018-06-15T10:19:27.191Z,25.95
2018-06-15T10:21:54.198Z,26.01
2018-06-15T10:24:20.860Z,25.87
2018-06-15T10:26:47.512Z,26.05
2018-06-15T10:29:14.224Z,26.02
2018-06-15T10:31:40.876Z,26.02
2018-06-15T10:34:07.515Z,25.97
2018-06-15T10:36:34.204Z,26.06
2018-06-15T10:39:00.946Z,26.11
2018-06-15T10:41:27.564Z,25.93
2018-06-15T10:43:54.211Z,26.13
2018-06-15T10:46:20.872Z,26.06
2018-06-15T10:48:47.531Z,25.93
2018-06-15T10:51:14.293Z,26.01
2018-06-15T10:53:41.110Z,25.90
2018-06-15T10:56:07.800Z,25.96
2018-06-15T10:58:34.492Z,26.17
2018-06-15T11:01:01.228Z,26.04
2018-06-15T11:03:27.884Z,26.10
2018-06-15T11:05:54.529Z,26.08
2018-06-15T11:08:22.236Z,25.93
2018-06-15T11:10:48.941Z,26.12
2018-06-15T11:13:15.550Z,25.95
2018-06-15T11:15:43.328Z,26.09
2018-06-15T11:18:10.037Z,26.08
2018-06-15T11:20:36.741Z,25.95
2018-06-15T11:23:03.630Z,26.00
2018-06-15T11:25:32.999Z,25.81
2018-06-15T11:27:59.713Z,25.78
2018-06-15T11:30:26.364Z,25.85
2018-06-15T11:32:53.109Z,25.53
2018-06-15T11:35:19.735Z,25.53
2018-06-15T11:37:46.389Z,25.71
2018-06-15T11:40:14.188Z,25.81
2018-06-15T11:42:40.998Z,25.86
2018-06-15T11:45:07.728Z,25.63
2018-06-15T11:47:34.357Z,25.76
2018-06-15T11:50:01.033Z,25.80
2018-06-15T11:52:28.779Z,25.69
2018-06-15T11:54:55.428Z,25.86
2018-06-15T11:57:22.124Z,25.88
2018-06-15T11:59:48.778Z,25.82
2018-06-15T12:02:15.485Z,25.69
2018-06-15T12:04:42.104Z,25.82
2018-06-15T12:07:11.239Z,25.64
2018-06-15T12:09:37.908Z,25.76
2018-06-15T12:12:04.665Z,25.69
2018-06-15T12:14:31.353Z,25.72
2018-06-15T12:16:57.982Z,25.67
2018-06-15T12:19:24.639Z,25.61
2018-06-15T12:21:51.327Z,25.60
2018-06-15T12:24:20.104Z,25.69
2018-06-15T12:26:46.815Z,25.67
2018-06-15T12:29:13.471Z,25.64
2018-06-15T12:31:40.237Z,25.64
2018-06-15T12:34:06.938Z,25.82
2018-06-15T12:36:33.601Z,25.79
2018-06-15T12:39:00.246Z,25.61
2018-06-15T12:41:26.919Z,25.76
2018-06-15T12:43:53.583Z,25.88
2018-06-15T12:46:20.253Z,25.90
2018-06-15T12:48:47.385Z,26.05
2018-06-15T12:51:14.079Z,25.95
2018-06-15T12:53:40.753Z,25.96
2018-06-15T12:56:07.398Z,25.95
2018-06-15T12:58:34.153Z,25.61
2018-06-15T13:01:00.806Z,25.88
2018-06-15T13:03:27.507Z,25.53
2018-06-15T13:05:54.128Z,25.88
2018-06-15T13:08:20.788Z,25.81
2018-06-15T13:10:47.440Z,25.70
2018-06-15T13:13:14.113Z,25.85
2018-06-15T13:15:40.784Z,25.89
2018-06-15T13:18:07.421Z,25.88
2018-06-15T13:20:34.171Z,25.85
2018-06-15T13:23:00.806Z,25.96
2018-06-15T13:25:27.492Z,25.87
2018-06-15T13:27:54.185Z,25.94
2018-06-15T13:30:20.847Z,25.72
2018-06-15T13:32:50.355Z,25.77
2018-06-15T13:35:16.995Z,25.75
2018-06-15T13:37:43.635Z,25.65
2018-06-15T13:40:10.322Z,25.93
2018-06-15T13:42:36.993Z,25.41
2018-06-15T13:45:03.653Z,25.27
2018-06-15T13:47:30.326Z,25.47
2018-06-15T13:49:57.146Z,25.49
2018-06-15T13:52:23.829Z,25.58
2018-06-15T13:54:50.442Z,25.68
2018-06-15T13:57:17.104Z,25.86
2018-06-15T13:59:43.741Z,25.99
2018-06-15T14:02:10.407Z,25.94
2018-06-15T14:04:37.082Z,25.97
2018-06-15T14:07:03.694Z,25.56
2018-06-15T14:09:30.424Z,25.46
2018-06-15T14:11:57.366Z,25.48
2018-06-15T14:14:24.011Z,25.57
2018-06-15T14:16:50.739Z,25.54
2018-06-15T14:19:17.419Z,25.40
2018-06-15T14:21:44.066Z,25.14
2018-06-15T14:24:10.718Z,25.15
2018-06-15T14:26:37.363Z,25.28
2018-06-15T14:29:04.006Z,25.17
2018-06-15T14:31:30.650Z,25.41
2018-06-15T14:33:57.338Z,25.52
2018-06-15T14:36:23.975Z,25.61
2018-06-15T14:38:50.669Z,25.57
2018-06-15T14:41:17.307Z,25.68
2018-06-15T14:43:43.946Z,25.64
2018-06-15T14:46:10.609Z,25.69
2018-06-15T14:48:37.526Z,25.89
2018-06-15T14:51:04.168Z,25.98
2018-06-15T14:53:30.819Z,26.02
2018-06-15T14:55:57.865Z,26.05
2018-06-15T14:58:24.490Z,26.08
2018-06-15T15:00:51.163Z,26.07
2018-06-15T15:03:17.802Z,26.09
2018-06-15T15:05:44.483Z,26.06
2018-06-15T15:08:11.122Z,25.95
2018-06-15T15:10:37.772Z,25.98
2018-06-15T15:13:04.444Z,26.02
2018-06-15T15:15:31.048Z,26.04
2018-06-15T15:17:57.728Z,26.03
2018-06-15T15:20:24.347Z,26.01
2018-06-15T15:22:50.987Z,26.00
2018-06-15T15:25:17.622Z,26.06
2018-06-15T15:27:44.340Z,26.09
2018-06-15T15:30:11.082Z,26.06
2018-06-15T15:32:37.673Z,26.05
2018-06-15T15:35:04.318Z,26.08
2018-06-15T15:37:30.957Z,26.00
2018-06-15T15:39:57.692Z,25.93
2018-06-15T15:42:24.366Z,26.00
2018-06-15T15:44:51.048Z,26.01
2018-06-15T15:47:17.751Z,26.02
2018-06-15T15:49:44.351Z,25.98
2018-06-15T15:52:11.045Z,26.03
2018-06-15T15:54:37.785Z,26.09
2018-06-15T15:57:04.489Z,26.04
2018-06-15T15:59:31.203Z,26.00
2018-06-15T16:01:58.058Z,26.00
2018-06-15T16:04:24.776Z,25.97
2018-06-15T16:06:51.420Z,25.94
2018-06-15T16:09:18.050Z,25.97
2018-06-15T16:11:44.710Z,25.92
2018-06-15T16:14:11.339Z,25.94
2018-06-15T16:16:38.018Z,25.89
2018-06-15T16:19:04.697Z,25.90
2018-06-15T16:21:31.336Z,25.84
2018-06-15T16:23:57.990Z,25.80
2018-06-15T16:26:24.728Z,25.75
2018-06-15T16:28:51.364Z,25.74
2018-06-15T16:31:18.000Z,25.66
2018-06-15T16:33:44.684Z,25.60
2018-06-15T16:36:11.289Z,25.59
2018-06-15T16:38:38.013Z,25.55
2018-06-15T16:41:04.613Z,25.57
2018-06-15T16:43:31.257Z,25.53
2018-06-15T16:45:57.933Z,25.48
2018-06-15T16:48:24.655Z,25.46
2018-06-15T16:50:51.259Z,25.51
2018-06-15T16:53:17.895Z,25.44
2018-06-15T16:55:44.545Z,25.48
2018-06-15T16:58:11.181Z,25.44
2018-06-15T17:00:37.823Z,25.40
2018-06-15T17:03:04.508Z,25.40
2018-06-15T17:05:31.135Z,25.36
2018-06-15T17:07:57.768Z,25.37
2018-06-15T17:10:24.410Z,25.34
2018-06-15T17:12:51.096Z,25.36
2018-06-15T17:15:17.772Z,25.32
2018-06-15T17:17:44.382Z,25.33
2018-06-15T17:20:11.038Z,25.29
2018-06-15T17:22:37.675Z,25.28
2018-06-15T17:25:04.309Z,25.30
2018-06-15T17:27:30.949Z,25.33
2018-06-15T17:29:57.633Z,25.29
2018-06-15T17:32:24.271Z,25.28
2018-06-15T17:34:50.972Z,25.26
2018-06-15T17:37:17.606Z,25.23
2018-06-15T17:39:44.241Z,25.20
2018-06-15T17:42:10.884Z,25.20
2018-06-15T17:44:37.562Z,25.21
2018-06-15T17:47:04.158Z,25.21
2018-06-15T17:49:30.793Z,25.20
2018-06-15T17:51:57.446Z,25.19
2018-06-15T17:54:24.086Z,25.20
2018-06-15T17:56:50.761Z,25.13
2018-06-15T17:59:17.397Z,25.16
2018-06-15T18:01:44.041Z,25.12
2018-06-15T18:04:10.693Z,25.11
2018-06-15T18:06:37.344Z,25.09
2018-06-15T18:09:04.000Z,25.11
2018-06-15T18:11:30.694Z,25.10
2018-06-15T18:13:57.372Z,25.10
2018-06-15T18:16:24.007Z,25.07
2018-06-15T18:18:50.710Z,25.07
2018-06-15T18:21:17.350Z,25.07
2018-06-15T18:23:43.996Z,25.10
2018-06-15T18:26:10.635Z,25.05
2018-06-15T18:28:37.309Z,25.06
2018-06-15T18:31:03.994Z,25.02
2018-06-15T18:33:30.718Z,25.04
2018-06-15T18:35:57.357Z,25.01
2018-06-15T18:38:24.026Z,25.02
2018-06-15T18:40:50.664Z,25.00
2018-06-15T18:43:17.345Z,24.99
2018-06-15T18:45:44.004Z,24.96
2018-06-15T18:48:10.684Z,24.94
2018-06-15T18:50:37.319Z,24.95
2018-06-15T18:53:03.957Z,24.95
2018-06-15T18:55:30.599Z,24.93
2018-06-15T18:57:57.242Z,24.90
2018-06-15T19:00:23.890Z,24.94
2018-06-15T19:02:50.538Z,24.94
2018-06-15T19:05:17.177Z,24.92
2018-06-15T19:07:43.893Z,24.90
2018-06-15T19:10:10.547Z,24.90
2018-06-15T19:12:37.226Z,24.84
2018-06-15T19:15:03.906Z,24.86
2018-06-15T19:17:30.541Z,24.88
2018-06-15T19:19:57.185Z,24.82
2018-06-15T19:22:23.835Z,24.83
2018-06-15T19:24:50.465Z,24.83
2018-06-15T19:27:17.145Z,24.81
2018-06-15T19:29:43.745Z,24.81
2018-06-15T19:32:10.414Z,24.78
2018-06-15T19:34:37.102Z,24.81
2018-06-15T19:37:05.924Z,24.76
2018-06-15T19:39:32.605Z,24.77
2018-06-15T19:41:59.223Z,24.80
2018-06-15T19:44:25.899Z,24.73
2018-06-15T19:46:52.538Z,24.75
2018-06-15T19:49:19.211Z,24.72
2018-06-15T19:51:45.821Z,24.71
2018-06-15T19:54:12.453Z,24.70
2018-06-15T19:56:39.156Z,24.70
2018-06-15T19:59:05.847Z,24.69
2018-06-15T20:01:32.426Z,24.69
2018-06-15T20:03:59.071Z,24.70
2018-06-15T20:06:25.799Z,24.68
2018-06-15T20:08:52.410Z,24.67
2018-06-15T20:11:19.094Z,24.64
2018-06-15T20:13:45.737Z,24.65
2018-06-15T20:16:12.368Z,24.65
2018-06-15T20:18:39.010Z,24.63
2018-06-15T20:21:05.651Z,24.61
2018-06-15T20:23:32.377Z,24.61
2018-06-15T20:25:59.066Z,24.59
2018-06-15T20:28:25.702Z,24.60
2018-06-15T20:30:52.418Z,24.57
2018-06-15T20:33:19.029Z,24.58
2018-06-15T20:35:45.670Z,24.57
2018-06-15T20:38:12.406Z,24.52
2018-06-15T20:40:39.096Z,24.49
2018-06-15T20:43:05.733Z,24.51
2018-06-15T20:45:32.417Z,24.50
2018-06-15T20:47:59.057Z,24.51
2018-06-15T20:50:26.778Z,24.50
2018-06-15T20:52:53.412Z,24.49
2018-06-15T20:55:20.051Z,24.48
2018-06-15T20:57:46.693Z,24.47
2018-06-15T21:00:13.330Z,24.46
2018-06-15T21:02:40.052Z,24.42
2018-06-15T21:05:06.654Z,24.42
2018-06-15T21:07:33.383Z,24.42
2018-06-15T21:10:00.082Z,24.41
2018-06-15T21:12:26.772Z,24.40
2018-06-15T21:14:53.415Z,24.41
2018-06-15T21:17:20.038Z,24.40
2018-06-15T21:19:46.686Z,24.41
2018-06-15T21:22:13.322Z,24.35
2018-06-15T21:24:40.040Z,24.35
2018-06-15T21:27:06.654Z,24.36
2018-06-15T21:29:33.293Z,24.33
2018-06-15T21:32:00.035Z,24.36
2018-06-15T21:34:26.557Z,24.33
2018-06-15T21:36:53.201Z,24.30
2018-06-15T21:39:19.834Z,24.29
2018-06-15T21:41:46.513Z,24.28
2018-06-15T21:44:13.160Z,24.27
2018-06-15T21:46:39.845Z,24.26
2018-06-15T21:49:06.478Z,24.31
2018-06-15T21:51:33.125Z,24.25
2018-06-15T21:53:59.802Z,24.24
2018-06-15T21:56:26.483Z,24.24
2018-06-15T21:58:53.150Z,24.25
2018-06-15T22:01:19.797Z,24.22
2018-06-15T22:03:46.491Z,24.24
2018-06-15T22:06:13.130Z,24.22
2018-06-15T22:08:39.797Z,24.22
2018-06-15T22:11:06.410Z,24.24
2018-06-15T22:13:33.095Z,24.19
2018-06-15T22:15:59.765Z,24.22
2018-06-15T22:18:26.418Z,24.19
2018-06-15T22:20:53.055Z,24.18
2018-06-15T22:23:19.748Z,24.15
2018-06-15T22:25:46.427Z,24.17
2018-06-15T22:28:13.103Z,24.15
2018-06-15T22:30:39.787Z,24.12
2018-06-15T22:33:06.422Z,24.11
2018-06-15T22:35:33.061Z,24.10
2018-06-15T22:37:59.717Z,24.10
2018-06-15T22:40:26.436Z,24.09
2018-06-15T22:42:53.037Z,24.13
2018-06-15T22:45:19.689Z,24.09
2018-06-15T22:47:46.381Z,24.09
2018-06-15T22:50:13.034Z,24.12
2018-06-15T22:52:39.684Z,24.10
2018-06-15T22:55:06.357Z,24.09
2018-06-15T22:57:32.992Z,24.11
2018-06-15T22:59:59.670Z,24.06
2018-06-15T23:02:26.301Z,24.06
2018-06-15T23:04:52.973Z,24.06
2018-06-15T23:07:19.640Z,24.04
2018-06-15T23:09:46.282Z,24.03
2018-06-15T23:12:12.922Z,24.03
2018-06-15T23:14:39.720Z,24.01
2018-06-15T23:17:06.400Z,24.03
2018-06-15T23:19:33.035Z,24.01
2018-06-15T23:21:59.709Z,24.03
2018-06-15T23:24:26.411Z,24.00
2018-06-15T23:26:56.319Z,23.99
2018-06-15T23:29:22.953Z,24.00
2018-06-15T23:31:49.638Z,23.98
2018-06-15T23:34:16.275Z,23.99
2018-06-15T23:36:43.048Z,23.98
2018-06-15T23:39:09.678Z,23.95
2018-06-15T23:41:36.395Z,23.94
2018-06-15T23:44:03.030Z,23.97
2018-06-15T23:46:29.670Z,23.94
2018-06-15T23:48:56.321Z,23.93
2018-06-15T23:51:22.962Z,23.96
2018-06-15T23:53:49.606Z,23.94
2018-06-15T23:56:16.240Z,23.95
2018-06-15T23:58:42.931Z,23.93
